createdAt,value
2024-03-02T00:00:28.507Z,6.56
2024-03-02T00:02:59.390Z,6.63
2024-03-02T00:05:30.247Z,6.47
2024-03-02T00:08:03.893Z,6.47
2024-03-02T00:10:43.840Z,6.58
2024-03-02T00:13:14.692Z,6.56
2024-03-02T00:15:51.243Z,6.60
2024-03-02T00:18:24.962Z,6.58
2024-03-02T00:20:59.230Z,6.50
2024-03-02T00:23:35.071Z,6.54
2024-03-02T00:26:06.904Z,6.55
2024-03-02T00:28:39.848Z,6.50
2024-03-02T00:31:13.186Z,6.57
2024-03-02T00:33:47.264Z,6.57
2024-03-02T00:36:20.325Z,6.59
2024-03-02T00:38:55.665Z,6.56
2024-03-02T00:41:28.083Z,6.53
2024-03-02T00:44:07.402Z,6.58
2024-03-02T00:46:39.734Z,6.59
2024-03-02T00:49:23.209Z,6.47
2024-03-02T00:51:55.642Z,6.45
2024-03-02T00:54:30.992Z,6.55
2024-03-02T00:57:02.106Z,6.55
2024-03-02T00:59:33.256Z,6.55
2024-03-02T01:02:04.133Z,6.45
2024-03-02T01:04:34.977Z,6.53
2024-03-02T01:07:05.852Z,6.49
2024-03-02T01:09:39.441Z,6.60
2024-03-02T01:12:11.399Z,6.64
2024-03-02T01:14:42.517Z,6.59
2024-03-02T01:17:13.669Z,6.58
2024-03-02T01:19:46.494Z,6.49
2024-03-02T01:22:17.496Z,6.38
2024-03-02T01:24:51.311Z,6.35
2024-03-02T01:27:22.442Z,6.26
2024-03-02T01:29:53.338Z,6.19
2024-03-02T01:32:24.278Z,6.07
2024-03-02T01:34:55.146Z,5.98
2024-03-02T01:37:26.484Z,5.97
2024-03-02T01:40:00.198Z,6.01
2024-03-02T01:42:32.165Z,6.06
2024-03-02T01:45:03.615Z,6.11
2024-03-02T01:47:34.584Z,6.05
2024-03-02T01:50:05.563Z,6.00
2024-03-02T01:52:36.422Z,5.99
2024-03-02T01:55:10.600Z,5.85
2024-03-02T01:57:43.371Z,5.87
2024-03-02T02:00:15.932Z,5.85
2024-03-02T02:02:47.409Z,5.87
2024-03-02T02:05:18.732Z,5.97
2024-03-02T02:07:49.872Z,6.09
2024-03-02T02:10:23.562Z,6.13
2024-03-02T02:12:54.665Z,6.06
2024-03-02T02:15:29.825Z,6.11
2024-03-02T02:18:01.449Z,6.02
2024-03-02T02:20:29.862Z,5.99
2024-03-02T02:23:04.314Z,5.92
2024-03-02T02:25:35.470Z,5.88
2024-03-02T02:28:06.410Z,5.85
2024-03-02T02:30:37.527Z,5.86
2024-03-02T02:33:09.130Z,5.75
2024-03-02T02:35:40.036Z,5.76
2024-03-02T02:38:13.680Z,5.81
2024-03-02T02:40:44.996Z,5.74
2024-03-02T02:43:15.912Z,5.68
2024-03-02T02:45:46.821Z,5.77
2024-03-02T02:48:17.771Z,5.72
2024-03-02T02:50:48.800Z,5.76
2024-03-02T02:53:22.378Z,5.71
2024-03-02T02:55:53.393Z,5.54
2024-03-02T02:58:24.391Z,5.59
2024-03-02T03:00:58.305Z,5.66
2024-03-02T03:03:29.361Z,5.63
2024-03-02T03:06:00.270Z,5.64
2024-03-02T03:08:33.797Z,5.54
2024-03-02T03:11:05.120Z,5.62
2024-03-02T03:13:36.187Z,5.57
2024-03-02T03:16:07.786Z,5.55
2024-03-02T03:18:39.854Z,5.57
2024-03-02T03:21:10.738Z,5.59
2024-03-02T03:23:44.222Z,5.60
2024-03-02T03:26:15.144Z,5.61
2024-03-02T03:28:46.019Z,5.69
2024-03-02T03:31:16.861Z,5.67
2024-03-02T03:33:47.901Z,5.62
2024-03-02T03:36:18.854Z,5.66
2024-03-02T03:38:52.511Z,5.63
2024-03-02T03:41:23.747Z,5.57
2024-03-02T03:43:54.637Z,5.56
2024-03-02T03:46:25.474Z,5.55
2024-03-02T03:48:57.356Z,5.48
2024-03-02T03:51:28.211Z,5.51
2024-03-02T03:54:01.731Z,5.52
2024-03-02T03:56:32.515Z,5.31
2024-03-02T03:59:03.872Z,5.49
2024-03-02T04:01:35.144Z,5.52
2024-03-02T04:04:06.321Z,5.43
2024-03-02T04:06:37.225Z,5.49
2024-03-02T04:09:10.939Z,5.52
2024-03-02T04:11:42.435Z,5.44
2024-03-02T04:14:13.869Z,5.42
2024-03-02T04:16:44.780Z,5.45
2024-03-02T04:19:15.804Z,5.50
2024-03-02T04:21:47.128Z,5.38
2024-03-02T04:24:20.768Z,5.48
2024-03-02T04:26:51.649Z,5.38
2024-03-02T04:29:22.572Z,5.35
2024-03-02T04:31:53.566Z,5.29
2024-03-02T04:34:24.483Z,5.36
2024-03-02T04:36:55.389Z,5.46
2024-03-02T04:39:29.245Z,5.48
2024-03-02T04:42:00.402Z,5.44
2024-03-02T04:44:31.294Z,5.40
2024-03-02T04:47:02.159Z,5.48
2024-03-02T04:49:33.126Z,5.56
2024-03-02T04:52:04.176Z,5.60
2024-03-02T04:54:57.821Z,5.65
2024-03-02T04:57:26.155Z,5.74
2024-03-02T04:59:57.084Z,5.83
2024-03-02T05:02:28.067Z,5.90
2024-03-02T05:04:59.199Z,5.92
2024-03-02T05:07:30.111Z,5.87
2024-03-02T05:10:03.699Z,5.82
2024-03-02T05:12:56.993Z,5.92
2024-03-02T05:15:28.149Z,5.83
2024-03-02T05:17:59.515Z,5.96
2024-03-02T05:20:30.451Z,5.91
2024-03-02T05:23:01.603Z,5.97
2024-03-02T05:25:36.689Z,5.98
2024-03-02T05:28:08.462Z,6.06
2024-03-02T05:30:39.377Z,5.95
2024-03-02T05:33:10.317Z,5.94
2024-03-02T05:35:41.152Z,5.89
2024-03-02T05:38:12.104Z,5.85
2024-03-02T05:40:45.852Z,5.87
2024-03-02T05:43:16.881Z,5.74
2024-03-02T05:45:47.811Z,5.91
2024-03-02T05:48:18.756Z,5.85
2024-03-02T05:50:50.127Z,5.85
2024-03-02T05:53:20.993Z,5.91
2024-03-02T05:55:57.233Z,5.89
2024-03-02T05:58:38.721Z,5.90
2024-03-02T06:01:09.748Z,6.00
2024-03-02T06:03:40.714Z,6.01
2024-03-02T06:06:11.919Z,6.05
2024-03-02T06:08:43.086Z,6.08
2024-03-02T06:11:16.632Z,6.16
2024-03-02T06:13:47.654Z,6.23
2024-03-02T06:16:18.506Z,6.22
2024-03-02T06:18:49.490Z,6.28
2024-03-02T06:21:20.933Z,6.29
2024-03-02T06:23:51.754Z,6.22
2024-03-02T06:26:26.268Z,6.31
2024-03-02T06:28:57.701Z,6.37
2024-03-02T06:31:28.555Z,6.47
2024-03-02T06:33:59.424Z,6.43
2024-03-02T06:36:30.295Z,6.48
2024-03-02T06:39:01.682Z,6.56
2024-03-02T06:41:35.397Z,6.61
2024-03-02T06:44:06.985Z,6.55
2024-03-02T06:46:37.835Z,6.62
2024-03-02T06:49:08.862Z,6.69
2024-03-02T06:51:39.800Z,6.68
2024-03-02T06:54:10.684Z,6.71
2024-03-02T06:56:44.129Z,6.76
2024-03-02T06:59:15.275Z,6.80
2024-03-02T07:01:46.362Z,6.89
2024-03-02T07:04:17.193Z,6.92
2024-03-02T07:06:48.013Z,7.07
2024-03-02T07:09:18.945Z,7.10
2024-03-02T07:11:52.688Z,7.17
2024-03-02T07:14:38.800Z,7.32
2024-03-02T07:17:11.276Z,7.31
2024-03-02T07:19:43.236Z,7.33
2024-03-02T07:22:14.182Z,7.43
2024-03-02T07:24:45.724Z,7.49
2024-03-02T07:27:19.762Z,7.44
2024-03-02T07:29:50.598Z,7.39
2024-03-02T07:32:21.613Z,7.40
2024-03-02T07:34:52.465Z,7.43
2024-03-02T07:37:23.367Z,7.51
2024-03-02T07:39:54.768Z,7.59
2024-03-02T07:42:28.446Z,7.58
2024-03-02T07:44:59.394Z,7.60
2024-03-02T07:47:30.282Z,7.60
2024-03-02T07:50:01.148Z,7.65
2024-03-02T07:52:31.961Z,7.66
2024-03-02T07:55:02.812Z,7.59
2024-03-02T07:57:36.924Z,7.59
2024-03-02T08:00:08.948Z,7.62
2024-03-02T08:02:44.150Z,7.58
2024-03-02T08:05:15.056Z,7.63
2024-03-02T08:07:46.115Z,7.49
2024-03-02T08:10:17.117Z,7.63
2024-03-02T08:12:50.730Z,7.80
2024-03-02T08:15:21.720Z,7.78
2024-03-02T08:17:52.732Z,7.75
2024-03-02T08:20:23.970Z,7.73
2024-03-02T08:22:56.400Z,7.77
2024-03-02T08:25:27.355Z,7.78
2024-03-02T08:28:01.154Z,7.85
2024-03-02T08:30:32.055Z,7.91
2024-03-02T08:33:02.960Z,7.93
2024-03-02T08:35:37.162Z,7.90
2024-03-02T08:38:08.777Z,7.94
2024-03-02T08:40:39.910Z,7.92
2024-03-02T08:43:14.074Z,7.97
2024-03-02T08:45:45.248Z,7.98
2024-03-02T08:48:16.141Z,8.03
2024-03-02T08:50:46.972Z,8.06
2024-03-02T08:53:19.939Z,8.11
2024-03-02T08:55:51.035Z,8.13
2024-03-02T08:58:24.559Z,8.30
2024-03-02T09:00:55.951Z,8.44
2024-03-02T09:03:27.006Z,8.49
2024-03-02T09:05:59.213Z,8.64
2024-03-02T09:08:30.479Z,8.63
2024-03-02T09:11:01.883Z,8.51
2024-03-02T09:13:35.866Z,8.64
2024-03-02T09:16:07.105Z,8.67
2024-03-02T09:18:38.064Z,8.68
2024-03-02T09:21:09.291Z,8.78
2024-03-02T09:23:41.631Z,8.86
2024-03-02T09:26:12.444Z,8.78
2024-03-02T09:28:47.479Z,8.79
2024-03-02T09:31:18.486Z,8.63
2024-03-02T09:33:49.348Z,8.58
2024-03-02T09:36:24.006Z,8.67
2024-03-02T09:38:54.869Z,8.68
2024-03-02T09:41:26.071Z,8.72
2024-03-02T09:44:00.061Z,8.84
2024-03-02T09:46:30.523Z,8.90
2024-03-02T09:49:01.810Z,8.83
2024-03-02T09:51:32.878Z,8.77
2024-03-02T09:54:13.077Z,8.95
2024-03-02T09:56:52.388Z,9.07
2024-03-02T09:59:26.089Z,9.07
2024-03-02T10:02:01.953Z,9.15
2024-03-02T10:04:34.111Z,9.16
2024-03-02T10:07:16.072Z,9.21
2024-03-02T10:09:48.944Z,9.29
2024-03-02T10:12:20.937Z,9.32
2024-03-02T10:15:08.960Z,9.36
2024-03-02T10:17:40.056Z,9.22
2024-03-02T10:20:27.621Z,9.10
2024-03-02T10:22:58.504Z,9.02
2024-03-02T10:25:43.526Z,9.02
2024-03-02T10:28:22.359Z,8.95
2024-03-02T10:30:56.205Z,9.03
2024-03-02T10:33:28.602Z,8.91
2024-03-02T10:36:00.572Z,8.87
2024-03-02T10:38:32.032Z,8.84
2024-03-02T10:41:05.170Z,8.86
2024-03-02T10:43:36.807Z,8.99
2024-03-02T10:46:10.509Z,9.02
2024-03-02T10:48:44.616Z,8.91
2024-03-02T10:51:16.254Z,8.95
2024-03-02T10:53:47.175Z,8.98
2024-03-02T10:56:26.898Z,8.95
2024-03-02T10:59:05.416Z,9.03
2024-03-02T11:01:43.106Z,9.08
2024-03-02T11:04:16.633Z,9.00
2024-03-02T11:06:52.780Z,8.92
2024-03-02T11:09:26.227Z,9.03
2024-03-02T11:12:10.003Z,9.08
2024-03-02T11:14:44.772Z,9.28
2024-03-02T11:17:20.019Z,9.40
2024-03-02T11:19:51.622Z,9.41
2024-03-02T11:22:23.223Z,9.36
2024-03-02T11:24:54.719Z,9.24
2024-03-02T11:28:05.736Z,8.93
2024-03-02T11:30:55.484Z,8.78
2024-03-02T11:33:32.617Z,8.86
2024-03-02T11:36:04.996Z,8.94
2024-03-02T11:38:37.355Z,9.02
2024-03-02T11:41:12.660Z,9.05
2024-03-02T11:43:45.655Z,9.15
2024-03-02T11:46:16.880Z,9.23
2024-03-02T11:48:51.168Z,9.35
2024-03-02T11:51:22.064Z,9.22
2024-03-02T11:53:54.343Z,9.20
2024-03-02T11:56:26.181Z,9.31
2024-03-02T11:58:59.165Z,9.29
2024-03-02T12:01:30.335Z,9.28
2024-03-02T12:04:04.650Z,9.11
2024-03-02T12:06:35.629Z,9.25
2024-03-02T12:09:08.002Z,9.36
2024-03-02T12:11:38.990Z,9.41
2024-03-02T12:14:17.126Z,9.30
2024-03-02T12:16:49.107Z,9.25
2024-03-02T12:19:22.568Z,9.14
2024-03-02T12:21:53.465Z,9.17
2024-03-02T12:24:25.611Z,9.12
2024-03-02T12:26:57.635Z,9.15
2024-03-02T12:29:28.552Z,9.07
2024-03-02T12:31:59.401Z,9.12
2024-03-02T12:34:33.054Z,9.05
2024-03-02T12:37:03.704Z,8.96
2024-03-02T12:39:34.996Z,8.84
2024-03-02T12:42:09.233Z,8.79
2024-03-02T12:44:40.411Z,8.66
2024-03-02T12:47:14.072Z,8.66
2024-03-02T12:49:50.837Z,8.65
2024-03-02T12:52:22.923Z,8.70
2024-03-02T12:54:59.019Z,8.63
2024-03-02T12:57:31.328Z,8.57
2024-03-02T13:00:03.606Z,8.60
2024-03-02T13:02:35.456Z,8.69
2024-03-02T13:05:12.461Z,8.77
2024-03-02T13:07:43.947Z,8.78
2024-03-02T13:10:16.843Z,8.80
2024-03-02T13:12:49.732Z,8.77
2024-03-02T13:15:21.286Z,8.84
2024-03-02T13:18:03.117Z,8.75
2024-03-02T13:20:46.671Z,8.80
2024-03-02T13:23:22.094Z,8.65
2024-03-02T13:26:09.077Z,8.74
2024-03-02T13:28:58.221Z,8.74
2024-03-02T13:31:50.694Z,8.60
2024-03-02T13:34:37.395Z,8.57
2024-03-02T13:37:16.996Z,8.59
2024-03-02T13:40:18.952Z,8.65
2024-03-02T13:42:59.062Z,8.68
2024-03-02T13:45:47.324Z,8.70
2024-03-02T13:48:25.040Z,8.75
2024-03-02T13:50:56.272Z,8.69
2024-03-02T13:53:34.088Z,8.73
2024-03-02T13:56:08.173Z,8.69
2024-03-02T13:58:49.022Z,8.66
2024-03-02T14:01:21.897Z,8.72
2024-03-02T14:03:55.650Z,8.63
2024-03-02T14:06:30.463Z,8.57
2024-03-02T14:09:07.366Z,8.55
2024-03-02T14:11:39.159Z,8.47
2024-03-02T14:14:10.533Z,8.53
2024-03-02T14:16:42.610Z,8.46
2024-03-02T14:19:15.383Z,8.50
2024-03-02T14:21:47.290Z,8.60
2024-03-02T14:24:25.394Z,8.53
2024-03-02T14:27:05.586Z,8.40
2024-03-02T14:29:41.984Z,8.26
2024-03-02T14:32:13.196Z,8.18
2024-03-02T14:34:44.391Z,8.09
2024-03-02T14:37:15.481Z,8.13
2024-03-02T14:39:49.538Z,8.07
2024-03-02T14:42:20.829Z,8.04
2024-03-02T14:44:52.166Z,7.90
2024-03-02T14:47:26.043Z,7.95
2024-03-02T14:49:57.436Z,7.90
2024-03-02T14:52:28.851Z,7.71
2024-03-02T14:55:04.739Z,7.75
2024-03-02T14:57:35.932Z,7.78
2024-03-02T15:00:09.134Z,7.63
2024-03-02T15:02:40.681Z,7.47
2024-03-02T15:05:12.632Z,7.48
2024-03-02T15:07:43.634Z,7.47
2024-03-02T15:10:18.405Z,7.34
2024-03-02T15:12:49.411Z,7.40
2024-03-02T15:15:21.559Z,7.35
2024-03-02T15:17:53.789Z,7.38
2024-03-02T15:20:25.476Z,7.34
2024-03-02T15:22:56.588Z,7.47
2024-03-02T15:25:30.363Z,7.34
2024-03-02T15:28:01.582Z,7.30
2024-03-02T15:30:33.390Z,7.25
2024-03-02T15:33:10.104Z,7.13
2024-03-02T15:35:41.578Z,7.14
2024-03-02T15:38:22.079Z,7.11
2024-03-02T15:41:03.989Z,7.18
2024-03-02T15:43:37.501Z,7.24
2024-03-02T15:46:09.727Z,7.11
2024-03-02T15:48:42.178Z,7.01
2024-03-02T15:51:20.497Z,7.08
2024-03-02T15:54:24.232Z,6.97
2024-03-02T15:57:24.714Z,7.08
2024-03-02T16:00:11.503Z,7.08
2024-03-02T16:02:44.313Z,7.06
2024-03-02T16:05:23.526Z,7.11
2024-03-02T16:08:01.064Z,7.06
2024-03-02T16:10:34.384Z,6.97
2024-03-02T16:13:16.902Z,6.99
2024-03-02T16:16:09.773Z,6.92
2024-03-02T16:18:44.777Z,6.82
2024-03-02T16:21:16.668Z,6.88
2024-03-02T16:23:48.097Z,6.74
2024-03-02T16:26:19.042Z,6.68
2024-03-02T16:28:52.673Z,6.67
2024-03-02T16:31:23.738Z,6.73
2024-03-02T16:33:55.113Z,6.69
2024-03-02T16:36:29.394Z,6.66
2024-03-02T16:39:00.439Z,6.70
2024-03-02T16:41:34.630Z,6.65
2024-03-02T16:44:08.705Z,6.74
2024-03-02T16:46:54.757Z,6.77
2024-03-02T16:49:31.296Z,6.72
2024-03-02T16:52:04.594Z,6.72
2024-03-02T16:54:36.012Z,6.51
2024-03-02T16:57:07.942Z,6.68
2024-03-02T16:59:41.840Z,6.69
2024-03-02T17:02:12.816Z,6.66
2024-03-02T17:04:44.411Z,6.61
2024-03-02T17:07:16.275Z,6.59
2024-03-02T17:09:47.606Z,6.68
2024-03-02T17:12:18.914Z,6.61
2024-03-02T17:14:53.108Z,6.60
2024-03-02T17:17:27.488Z,6.60
2024-03-02T17:19:59.135Z,6.68
2024-03-02T17:22:30.113Z,6.65
2024-03-02T17:25:01.190Z,6.71
2024-03-02T17:27:32.550Z,6.83
2024-03-02T17:30:07.286Z,6.67
2024-03-02T17:32:42.734Z,6.71
2024-03-02T17:35:13.827Z,6.79
2024-03-02T17:37:47.015Z,6.77
2024-03-02T17:40:24.068Z,6.79
2024-03-02T17:42:56.993Z,6.80
2024-03-02T17:45:30.520Z,6.82
2024-03-02T17:48:01.597Z,6.82
2024-03-02T17:50:33.732Z,6.78
2024-03-02T17:53:07.358Z,6.85
2024-03-02T17:55:38.687Z,6.92
2024-03-02T17:58:09.698Z,6.94
2024-03-02T18:00:43.522Z,6.91
2024-03-02T18:03:14.650Z,6.76
2024-03-02T18:05:45.572Z,6.76
2024-03-02T18:08:17.303Z,6.69
2024-03-02T18:10:49.037Z,6.72
2024-03-02T18:13:20.177Z,6.69
2024-03-02T18:15:54.501Z,6.74
2024-03-02T18:18:26.850Z,6.67
2024-03-02T18:20:58.240Z,6.76
2024-03-02T18:23:30.200Z,6.68
2024-03-02T18:26:01.342Z,6.58
2024-03-02T18:28:32.475Z,6.62
2024-03-02T18:31:06.574Z,6.62
2024-03-02T18:33:38.041Z,6.70
2024-03-02T18:36:11.023Z,6.65
2024-03-02T18:38:45.655Z,6.68
2024-03-02T18:41:18.022Z,6.75
2024-03-02T18:43:49.417Z,6.76
2024-03-02T18:46:23.477Z,6.70
2024-03-02T18:48:52.433Z,6.71
2024-03-02T18:51:26.763Z,6.69
2024-03-02T18:53:57.829Z,6.69
2024-03-02T18:56:28.819Z,6.70
2024-03-02T18:58:59.935Z,6.71
2024-03-02T19:01:33.663Z,6.68
2024-03-02T19:04:05.782Z,6.68
2024-03-02T19:06:36.777Z,6.70
2024-03-02T19:09:08.091Z,6.62
2024-03-02T19:11:39.414Z,6.67
2024-03-02T19:14:12.071Z,6.62
2024-03-02T19:16:45.979Z,6.59
2024-03-02T19:19:17.012Z,6.57
2024-03-02T19:21:55.719Z,6.56
2024-03-02T19:24:31.528Z,6.55
2024-03-02T19:27:02.497Z,6.49
2024-03-02T19:29:33.594Z,6.41
2024-03-02T19:32:11.939Z,6.43
2024-03-02T19:34:43.710Z,6.37
2024-03-02T19:37:14.766Z,6.37
2024-03-02T19:39:46.185Z,6.30
2024-03-02T19:42:17.294Z,6.26
2024-03-02T19:44:48.127Z,6.25
2024-03-02T19:47:23.316Z,6.15
2024-03-02T19:49:54.372Z,6.20
2024-03-02T19:52:26.841Z,6.14
2024-03-02T19:54:58.172Z,6.07
2024-03-02T19:57:30.683Z,6.05
2024-03-02T20:00:01.555Z,6.02
2024-03-02T20:02:35.152Z,5.94
2024-03-02T20:05:06.123Z,5.92
2024-03-02T20:07:37.245Z,5.92
2024-03-02T20:10:09.618Z,5.80
2024-03-02T20:12:41.259Z,5.82
2024-03-02T20:15:14.249Z,5.72
2024-03-02T20:17:47.847Z,5.72
2024-03-02T20:20:19.232Z,5.72
2024-03-02T20:22:51.579Z,5.74
2024-03-02T20:25:22.504Z,5.72
2024-03-02T20:27:53.523Z,5.69
2024-03-02T20:30:24.650Z,5.72
2024-03-02T20:32:58.566Z,5.72
2024-03-02T20:35:29.660Z,5.67
2024-03-02T20:38:02.268Z,5.66
2024-03-02T20:40:35.004Z,5.66
2024-03-02T20:43:11.865Z,5.64
2024-03-02T20:45:43.224Z,5.62
2024-03-02T20:48:21.611Z,5.59
2024-03-02T20:50:53.029Z,5.59
2024-03-02T20:53:34.721Z,5.56
2024-03-02T20:56:32.142Z,5.44
2024-03-02T20:59:18.697Z,5.47
2024-03-02T21:01:51.851Z,5.43
2024-03-02T21:04:28.004Z,5.43
2024-03-02T21:06:59.339Z,5.38
2024-03-02T21:09:30.667Z,5.27
2024-03-02T21:12:06.538Z,5.26
2024-03-02T21:14:41.373Z,5.20
2024-03-02T21:17:12.971Z,5.22
2024-03-02T21:19:50.037Z,5.25
2024-03-02T21:22:23.213Z,5.21
2024-03-02T21:24:54.824Z,5.17
2024-03-02T21:27:40.966Z,5.09
2024-03-02T21:30:13.548Z,5.05
2024-03-02T21:32:50.026Z,5.04
2024-03-02T21:35:34.421Z,5.10
2024-03-02T21:38:07.615Z,5.11
2024-03-02T21:40:38.662Z,5.11
2024-03-02T21:43:09.803Z,5.08
2024-03-02T21:45:40.799Z,5.09
2024-03-02T21:48:12.275Z,5.05
2024-03-02T21:50:46.207Z,5.08
2024-03-02T21:53:17.075Z,5.06
2024-03-02T21:55:48.004Z,5.02
2024-03-02T21:58:18.939Z,4.96
2024-03-02T22:00:50.278Z,4.97
2024-03-02T22:03:21.322Z,4.94
2024-03-02T22:05:54.796Z,4.89
2024-03-02T22:08:28.741Z,4.91
2024-03-02T22:11:02.138Z,4.89
2024-03-02T22:13:33.225Z,4.86
2024-03-02T22:16:04.136Z,4.89
2024-03-02T22:18:35.031Z,4.90
2024-03-02T22:21:08.819Z,4.91
2024-03-02T22:23:42.024Z,4.87
2024-03-02T22:26:12.942Z,4.89
2024-03-02T22:28:44.452Z,4.89
2024-03-02T22:31:15.441Z,4.88
2024-03-02T22:33:46.378Z,4.87
2024-03-02T22:36:19.828Z,4.86
2024-03-02T22:38:50.637Z,4.82
2024-03-02T22:41:21.523Z,4.80
2024-03-02T22:43:52.461Z,4.76
2024-03-02T22:46:23.618Z,4.75
2024-03-02T22:48:55.694Z,4.80
2024-03-02T22:51:30.238Z,4.76
2024-03-02T22:54:01.138Z,4.78
2024-03-02T22:56:32.269Z,4.73
2024-03-02T22:59:03.723Z,4.74
2024-03-02T23:01:36.115Z,4.78
2024-03-02T23:04:08.557Z,4.79
2024-03-02T23:06:42.232Z,4.72
2024-03-02T23:09:13.184Z,4.73
2024-03-02T23:11:44.200Z,4.68
2024-03-02T23:14:15.061Z,4.69
2024-03-02T23:16:46.619Z,4.70
2024-03-02T23:19:22.178Z,4.68
2024-03-02T23:21:56.045Z,4.67
2024-03-02T23:24:26.878Z,4.62
2024-03-02T23:26:57.768Z,4.62
2024-03-02T23:29:28.644Z,4.63
2024-03-02T23:31:59.811Z,4.61
2024-03-02T23:34:31.235Z,4.61
2024-03-02T23:37:04.969Z,4.62
2024-03-02T23:40:11.529Z,4.64
2024-03-02T23:42:42.572Z,4.60
2024-03-02T23:45:14.266Z,4.57
2024-03-02T23:47:45.264Z,4.55
2024-03-02T23:50:16.225Z,4.58
2024-03-02T23:52:49.684Z,4.47
2024-03-02T23:55:20.834Z,4.54
2024-03-02T23:57:51.977Z,4.49
